This is the latest recevied weather packets stored in our database for station/object KV4OP. If no packets are shown the sender has not sent any weather packets the latest 10 day(s).
| Time | Temp. | Humidity | Pressure | Rain* | Wind** | Luminosity | Snow |
|---|---|---|---|---|---|---|---|
| 1777439454 | 18.89° C | 88% | 1017.7 hPa | 0 mm | - | - | - |
| 1777439153 | 18.89° C | 88% | 1017.7 hPa | 0 mm | - | - | - |
| 1777438871 | 18.89° C | 88% | 1017.6 hPa | 0 mm | - | - | - |
| 1777438553 | 18.89° C | 88% | 1017.7 hPa | 0 mm | - | - | - |
| 1777438251 | 18.89° C | 88% | 1017.7 hPa | 0 mm | - | - | - |
| 1777437950 | 18.89° C | 88% | 1017.7 hPa | 0 mm | - | - | - |
| 1777437349 | 19.44° C | 88% | 1017.8 hPa | 0 mm | - | - | - |
| 1777435243 | 20° C | 88% | 1018.1 hPa | 0 mm | - | - | - |
| 1777432546 | 20° C | 86% | 1018.6 hPa | 0 mm | - | - | - |
| 1777429540 | 20.56° C | 84% | 1018.3 hPa | 0 mm | - | - | - |
| 1777425638 | 22.78° C | 77% | 1018.5 hPa | 0 mm | - | - | - |
| 1777425339 | 22.78° C | 77% | 1018.4 hPa | 0 mm | - | - | - |
| 1777424438 | 22.78° C | 76% | 1018.2 hPa | 0 mm | - | - | - |
| 1777417831 | 26.11° C | 66% | 1018.6 hPa | 0 mm | - | - | - |
| 1777415132 | 27.22° C | 64% | 1018.4 hPa | 0 mm | - | - | - |
| 1777414229 | 29.44° C | 57% | 1018.5 hPa | 0 mm | - | - | - |
| 1777413928 | - | - | 1018.6 hPa | 0 mm | - | - | - |
| 1777412724 | - | - | 1018.2 hPa | 0 mm | - | - | - |
| 1777412120 | 33.33° C | 52% | 1018.3 hPa | 0 mm | - | - | - |
| 1777410921 | 31.11° C | 55% | 1018.5 hPa | 0 mm | - | - | - |
| 1777410318 | 31.67° C | 54% | 1018.5 hPa | 0 mm | - | - | - |
| 1777410019 | 31.67° C | 54% | 1018.7 hPa | 0 mm | - | - | - |
| 1777409719 | 31.67° C | 53% | 1018.5 hPa | 0 mm | - | - | - |
| 1777409419 | 32.22° C | 53% | 1018.6 hPa | 0 mm | - | - | - |
| 1777408517 | 32.22° C | 52% | 1018.8 hPa | 0 mm | - | - | - |
* Rain latest hour (hover to see other rain measurements)
** Current wind speed in m/s (hover to see current wind gust speed)